createdAt,value
2019-05-19T00:02:27.552Z,8.73
2019-05-19T00:04:53.381Z,3.93
2019-05-19T00:07:19.167Z,14.63
2019-05-19T00:09:45.254Z,6.10
2019-05-19T00:12:12.834Z,5.70
2019-05-19T00:14:38.732Z,6.30
2019-05-19T00:17:09.368Z,3.90
2019-05-19T00:19:35.157Z,3.97
2019-05-19T00:22:00.976Z,5.67
2019-05-19T00:24:26.749Z,7.20
2019-05-19T00:26:52.546Z,6.93
2019-05-19T00:29:21.339Z,7.40
2019-05-19T00:31:47.128Z,6.43
2019-05-19T00:34:15.696Z,5.20
2019-05-19T00:36:41.798Z,9.83
2019-05-19T00:39:10.567Z,4.43
2019-05-19T00:41:36.373Z,5.90
2019-05-19T00:44:05.142Z,6.37
2019-05-19T00:46:31.231Z,5.50
2019-05-19T00:48:58.738Z,5.87
2019-05-19T00:51:24.542Z,6.43
2019-05-19T00:53:53.103Z,6.93
2019-05-19T00:56:19.017Z,7.57
2019-05-19T00:58:45.248Z,5.67
2019-05-19T01:01:11.014Z,4.03
2019-05-19T01:03:36.922Z,5.43
2019-05-19T01:06:04.859Z,5.60
2019-05-19T01:08:30.654Z,5.00
2019-05-19T01:11:01.148Z,4.73
2019-05-19T01:13:27.192Z,4.20
2019-05-19T01:15:56.064Z,4.77
2019-05-19T01:18:21.864Z,7.70
2019-05-19T01:20:50.665Z,5.30
2019-05-19T01:23:16.861Z,4.57
2019-05-19T01:25:46.158Z,5.63
2019-05-19T01:28:11.973Z,4.23
2019-05-19T01:30:41.252Z,4.63
2019-05-19T01:33:07.053Z,4.90
2019-05-19T01:35:33.117Z,3.93
2019-05-19T01:37:58.907Z,5.37
2019-05-19T01:40:24.712Z,6.80
2019-05-19T01:42:50.869Z,13.13
2019-05-19T01:45:18.557Z,6.47
2019-05-19T01:47:44.452Z,5.20
2019-05-19T01:50:18.670Z,5.90
2019-05-19T01:52:41.212Z,9.13
2019-05-19T01:55:07.598Z,5.63
2019-05-19T01:57:36.734Z,6.20
2019-05-19T02:00:07.342Z,7.00
2019-05-19T02:02:33.403Z,4.93
2019-05-19T02:04:59.452Z,8.60
2019-05-19T02:07:25.287Z,7.57
2019-05-19T02:09:51.099Z,9.30
2019-05-19T02:12:17.179Z,5.90
2019-05-19T02:14:42.986Z,7.37
2019-05-19T02:17:08.787Z,10.77
2019-05-19T02:19:37.789Z,12.00
2019-05-19T02:22:03.827Z,10.67
2019-05-19T02:24:32.888Z,7.47
2019-05-19T02:26:58.706Z,9.03
2019-05-19T02:29:24.509Z,10.07
2019-05-19T02:31:50.309Z,9.50
2019-05-19T02:34:23.335Z,7.27
2019-05-19T02:36:49.397Z,12.13
2019-05-19T02:39:15.497Z,13.57
2019-05-19T02:41:43.707Z,9.17
2019-05-19T02:44:10.424Z,12.20
2019-05-19T02:46:36.337Z,12.07
2019-05-19T02:49:02.359Z,14.63
2019-05-19T02:51:29.632Z,8.93
2019-05-19T02:53:57.176Z,13.30
2019-05-19T02:56:24.920Z,13.53
2019-05-19T02:58:51.566Z,11.80
2019-05-19T03:01:17.639Z,10.50
2019-05-19T03:03:43.434Z,10.97
2019-05-19T03:06:12.303Z,12.93
2019-05-19T03:08:38.103Z,15.47
2019-05-19T03:11:07.174Z,19.27
2019-05-19T03:13:32.972Z,18.73
2019-05-19T03:16:01.756Z,21.50
2019-05-19T03:18:27.575Z,17.03
2019-05-19T03:21:10.379Z,18.17
2019-05-19T03:23:24.365Z,19.67
2019-05-19T03:25:50.189Z,18.10
2019-05-19T03:28:15.969Z,16.60
2019-05-19T03:30:43.645Z,17.73
2019-05-19T03:33:11.342Z,19.17
2019-05-19T03:35:37.160Z,16.73
2019-05-19T03:38:02.953Z,16.20
2019-05-19T03:40:28.729Z,19.40
2019-05-19T03:42:57.484Z,16.00
2019-05-19T03:45:23.291Z,18.63
2019-05-19T03:47:51.859Z,19.40
2019-05-19T03:50:17.739Z,25.33
2019-05-19T03:52:46.327Z,19.77
2019-05-19T03:55:12.535Z,21.10
2019-05-19T03:57:41.410Z,18.77
2019-05-19T04:00:07.498Z,20.40
2019-05-19T04:02:33.305Z,21.17
2019-05-19T04:04:59.113Z,17.90
2019-05-19T04:07:25.154Z,21.97
2019-05-19T04:09:50.982Z,20.10
2019-05-19T04:12:17.054Z,18.07
2019-05-19T04:14:45.923Z,24.50
2019-05-19T04:17:11.750Z,26.07
2019-05-19T04:19:40.397Z,23.07
2019-05-19T04:22:06.463Z,22.45
2019-05-19T04:24:38.959Z,24.03
2019-05-19T04:27:04.746Z,19.25
2019-05-19T04:29:30.592Z,23.13
2019-05-19T04:31:56.451Z,18.30
2019-05-19T04:34:25.289Z,19.33
2019-05-19T04:36:51.059Z,19.23
2019-05-19T04:39:16.849Z,14.97
2019-05-19T04:41:42.651Z,17.03
2019-05-19T04:44:08.758Z,14.17
2019-05-19T04:46:37.587Z,14.73
2019-05-19T04:49:03.428Z,13.13
2019-05-19T04:51:32.005Z,24.90
2019-05-19T04:53:57.810Z,17.13
2019-05-19T04:56:26.371Z,17.90
2019-05-19T04:58:52.173Z,18.20
2019-05-19T05:01:21.041Z,18.10
2019-05-19T05:03:46.842Z,16.57
2019-05-19T05:06:15.704Z,18.67
2019-05-19T05:08:41.490Z,21.30
2019-05-19T05:11:11.892Z,22.83
2019-05-19T05:13:37.728Z,18.33
2019-05-19T05:16:03.802Z,18.93
2019-05-19T05:18:29.645Z,20.70
2019-05-19T05:20:55.418Z,25.17
2019-05-19T05:23:24.221Z,23.63
2019-05-19T05:25:50.318Z,26.27
2019-05-19T05:28:19.191Z,26.23
2019-05-19T05:30:45.249Z,30.87
2019-05-19T05:33:11.044Z,26.87
2019-05-19T05:35:37.103Z,27.60
2019-05-19T05:38:07.573Z,30.53
2019-05-19T05:40:33.394Z,32.07
2019-05-19T05:43:02.384Z,33.33
2019-05-19T05:45:28.163Z,30.53
2019-05-19T05:47:56.867Z,30.73
2019-05-19T05:50:22.690Z,32.77
2019-05-19T05:52:48.490Z,30.50
2019-05-19T05:55:14.705Z,38.10
2019-05-19T05:57:40.509Z,28.37
2019-05-19T06:00:09.643Z,27.60
2019-05-19T06:02:35.482Z,31.53
2019-05-19T06:05:02.727Z,32.27
2019-05-19T06:07:28.511Z,28.10
2019-05-19T06:09:57.072Z,30.50
2019-05-19T06:12:22.874Z,32.97
2019-05-19T06:14:51.661Z,33.50
2019-05-19T06:17:17.430Z,30.50
2019-05-19T06:19:46.525Z,35.00
2019-05-19T06:22:12.704Z,28.70
2019-05-19T06:24:41.603Z,26.23
2019-05-19T06:27:07.368Z,32.27
2019-05-19T06:29:33.152Z,27.67
2019-05-19T06:32:01.113Z,24.50
2019-05-19T06:34:26.956Z,25.93
2019-05-19T06:36:55.077Z,25.80
2019-05-19T06:39:21.000Z,28.93
2019-05-19T06:41:49.835Z,29.10
2019-05-19T06:44:15.859Z,25.90
2019-05-19T06:46:41.671Z,28.30
2019-05-19T06:49:08.336Z,26.37
2019-05-19T06:51:37.155Z,28.10
2019-05-19T06:54:03.045Z,23.60
2019-05-19T06:56:31.843Z,23.60
2019-05-19T06:58:57.918Z,26.10
2019-05-19T07:01:26.810Z,24.80
2019-05-19T07:03:52.849Z,21.23
2019-05-19T07:06:18.723Z,21.93
2019-05-19T07:08:44.545Z,21.77
2019-05-19T07:11:10.311Z,23.80
2019-05-19T07:13:55.983Z,18.17
2019-05-19T07:16:21.836Z,16.50
2019-05-19T07:18:47.622Z,19.37
2019-05-19T07:21:13.424Z,16.50
2019-05-19T07:23:39.359Z,23.77
2019-05-19T07:26:05.262Z,16.03
2019-05-19T07:28:31.315Z,15.40
2019-05-19T07:30:57.370Z,14.60
2019-05-19T07:33:23.168Z,17.30
2019-05-19T07:35:48.986Z,13.40
2019-05-19T07:38:15.065Z,13.07
2019-05-19T07:40:40.875Z,11.33
2019-05-19T07:43:06.917Z,40.03
2019-05-19T07:45:32.742Z,13.13
2019-05-19T07:47:58.880Z,15.47
2019-05-19T07:50:24.651Z,10.20
2019-05-19T07:52:50.446Z,11.80
2019-05-19T07:55:19.478Z,10.07
2019-05-19T07:57:45.511Z,12.10
2019-05-19T08:00:14.773Z,7.50
2019-05-19T08:02:40.559Z,13.00
2019-05-19T08:05:09.418Z,10.43
2019-05-19T08:07:35.560Z,9.40
2019-05-19T08:10:04.735Z,8.03
2019-05-19T08:12:30.545Z,9.83
2019-05-19T08:14:56.618Z,7.43
2019-05-19T08:17:25.751Z,7.13
2019-05-19T08:19:50.164Z,7.43
2019-05-19T08:22:15.998Z,11.53
2019-05-19T08:24:41.777Z,8.93
2019-05-19T08:27:10.609Z,8.03
2019-05-19T08:29:36.696Z,8.60
2019-05-19T08:32:05.541Z,13.83
2019-05-19T08:34:31.586Z,8.97
2019-05-19T08:36:59.668Z,6.40
2019-05-19T08:39:25.690Z,9.57
2019-05-19T08:41:54.517Z,11.27
2019-05-19T08:44:20.338Z,8.20
2019-05-19T08:46:49.244Z,6.73
2019-05-19T08:49:15.031Z,10.60
2019-05-19T08:51:41.956Z,9.53
2019-05-19T08:54:14.938Z,7.10
2019-05-19T08:56:35.557Z,6.17
2019-05-19T08:59:01.361Z,5.83
2019-05-19T09:01:27.154Z,7.17
2019-05-19T09:03:55.764Z,5.70
2019-05-19T09:06:21.576Z,7.87
2019-05-19T09:08:49.304Z,6.10
2019-05-19T09:11:15.127Z,4.70
2019-05-19T09:13:43.925Z,5.07
2019-05-19T09:16:09.752Z,6.87
2019-05-19T09:18:38.913Z,5.13
2019-05-19T09:21:04.729Z,4.83
2019-05-19T09:23:33.680Z,4.80
2019-05-19T09:25:59.746Z,4.87
2019-05-19T09:28:27.740Z,3.33
2019-05-19T09:30:53.561Z,4.20
2019-05-19T09:33:19.356Z,5.67
2019-05-19T09:35:45.250Z,3.97
2019-05-19T09:38:11.340Z,3.83
2019-05-19T09:40:39.156Z,4.77
2019-05-19T09:43:05.203Z,2.87
2019-05-19T09:45:33.636Z,3.73
2019-05-19T09:47:59.676Z,4.30
2019-05-19T09:50:28.542Z,4.60
2019-05-19T09:52:54.338Z,2.80
2019-05-19T09:55:22.821Z,4.70
2019-05-19T09:57:48.920Z,3.83
2019-05-19T10:00:19.625Z,4.50
2019-05-19T10:02:45.426Z,3.67
2019-05-19T10:05:14.478Z,4.03
2019-05-19T10:07:40.533Z,10.10
2019-05-19T10:10:13.140Z,3.80
2019-05-19T10:12:38.933Z,18.70
2019-05-19T10:15:05.769Z,3.90
2019-05-19T10:17:31.579Z,4.97
2019-05-19T10:19:57.391Z,2.70
2019-05-19T10:22:23.521Z,3.60
2019-05-19T10:24:59.663Z,3.17
2019-05-19T10:27:16.996Z,2.57
2019-05-19T10:29:42.792Z,2.83
2019-05-19T10:32:08.847Z,5.83
2019-05-19T10:34:35.646Z,3.23
2019-05-19T10:37:03.743Z,3.93
2019-05-19T10:39:29.942Z,5.90
2019-05-19T10:41:59.226Z,3.83
2019-05-19T10:44:25.110Z,4.57
2019-05-19T10:46:50.972Z,2.40
2019-05-19T10:49:17.229Z,3.43
2019-05-19T10:51:44.055Z,2.80
2019-05-19T10:54:09.941Z,3.27
2019-05-19T10:56:35.721Z,3.13
2019-05-19T10:59:04.512Z,6.03
2019-05-19T11:01:30.654Z,3.77
2019-05-19T11:03:59.491Z,2.67
2019-05-19T11:06:25.275Z,2.80
2019-05-19T11:08:54.115Z,2.90
2019-05-19T11:11:20.172Z,3.07
2019-05-19T11:13:48.697Z,18.03
2019-05-19T11:16:14.488Z,2.07
2019-05-19T11:18:42.985Z,1.70
2019-05-19T11:21:08.755Z,1.87
2019-05-19T11:23:34.835Z,2.90
2019-05-19T11:26:00.637Z,2.77
2019-05-19T11:28:26.901Z,4.33
2019-05-19T11:30:55.836Z,3.20
2019-05-19T11:33:21.868Z,2.20
2019-05-19T11:35:50.546Z,3.37
2019-05-19T11:38:16.326Z,1.63
2019-05-19T11:40:44.898Z,1.60
2019-05-19T11:43:11.707Z,2.00
2019-05-19T11:45:40.639Z,3.50
2019-05-19T11:48:06.429Z,2.30
2019-05-19T11:50:35.292Z,6.00
2019-05-19T11:53:01.341Z,2.67
2019-05-19T11:55:30.402Z,1.87
2019-05-19T11:57:57.227Z,2.43
2019-05-19T12:00:23.039Z,2.20
2019-05-19T12:02:49.150Z,2.53
2019-05-19T12:05:15.165Z,3.00
2019-05-19T12:07:40.971Z,2.30
2019-05-19T12:10:07.078Z,2.20
2019-05-19T12:12:35.945Z,1.67
2019-05-19T12:15:03.599Z,2.43
2019-05-19T12:17:30.131Z,4.30
2019-05-19T12:19:55.919Z,2.70
2019-05-19T12:22:24.767Z,2.10
2019-05-19T12:24:50.548Z,2.63
2019-05-19T12:27:19.234Z,5.43
2019-05-19T12:29:45.025Z,3.20
2019-05-19T12:32:13.594Z,3.23
2019-05-19T12:34:39.379Z,3.77
2019-05-19T12:37:05.181Z,2.10
2019-05-19T12:39:31.261Z,2.00
2019-05-19T12:41:57.091Z,2.17
2019-05-19T12:44:25.942Z,1.77
2019-05-19T12:46:51.755Z,2.70
2019-05-19T12:49:22.009Z,1.83
2019-05-19T12:51:47.824Z,2.57
2019-05-19T12:54:16.806Z,2.80
2019-05-19T12:56:42.635Z,3.17
2019-05-19T12:59:11.664Z,3.63
2019-05-19T13:01:37.724Z,2.57
2019-05-19T13:04:06.687Z,9.23
2019-05-19T13:06:32.524Z,3.80
2019-05-19T13:09:01.038Z,3.67
2019-05-19T13:11:26.846Z,5.07
2019-05-19T13:13:52.651Z,2.33
2019-05-19T13:16:18.429Z,3.17
2019-05-19T13:18:44.282Z,3.53
2019-05-19T13:21:13.096Z,1.93
2019-05-19T13:23:39.201Z,3.53
2019-05-19T13:26:07.744Z,3.50
2019-05-19T13:28:33.562Z,2.80
2019-05-19T13:31:02.149Z,3.07
2019-05-19T13:33:28.186Z,4.10
2019-05-19T13:35:57.014Z,2.20
2019-05-19T13:38:23.064Z,3.87
2019-05-19T13:40:52.120Z,2.03
2019-05-19T13:43:17.927Z,2.63
2019-05-19T13:45:46.485Z,4.40
2019-05-19T13:48:12.308Z,2.67
2019-05-19T13:50:38.353Z,2.70
2019-05-19T13:53:04.136Z,2.37
2019-05-19T13:55:29.955Z,3.77
2019-05-19T13:57:58.753Z,2.00
2019-05-19T14:00:24.534Z,4.77
2019-05-19T14:02:53.339Z,1.70
2019-05-19T14:05:19.141Z,2.10
2019-05-19T14:07:45.693Z,2.80
2019-05-19T14:10:12.186Z,5.80
2019-05-19T14:12:40.993Z,2.23
2019-05-19T14:15:06.878Z,6.03
2019-05-19T14:17:35.767Z,3.90
2019-05-19T14:20:03.752Z,4.27
2019-05-19T14:22:29.706Z,3.27
2019-05-19T14:24:55.760Z,2.30
2019-05-19T14:27:30.208Z,6.27
2019-05-19T14:29:49.516Z,3.27
2019-05-19T14:32:15.334Z,2.50
2019-05-19T14:34:44.281Z,4.40
2019-05-19T14:37:10.085Z,8.93
2019-05-19T14:39:39.176Z,3.20
2019-05-19T14:42:06.888Z,3.30
2019-05-19T14:44:32.979Z,7.03
2019-05-19T14:46:59.072Z,3.23
2019-05-19T14:49:27.631Z,2.70
2019-05-19T14:51:53.416Z,3.53
2019-05-19T14:54:22.012Z,3.73
2019-05-19T14:56:48.099Z,3.33
2019-05-19T14:59:16.904Z,5.00
2019-05-19T15:01:42.676Z,4.17
2019-05-19T15:04:08.492Z,2.77
2019-05-19T15:06:34.581Z,3.50
2019-05-19T15:09:00.693Z,4.17
2019-05-19T15:11:29.452Z,3.30
2019-05-19T15:13:55.270Z,10.67
2019-05-19T15:16:23.929Z,3.20
2019-05-19T15:18:49.729Z,5.50
2019-05-19T15:21:18.276Z,4.10
2019-05-19T15:23:44.316Z,3.20
2019-05-19T15:26:13.368Z,3.20
2019-05-19T15:28:39.443Z,3.97
2019-05-19T15:31:08.002Z,3.17
2019-05-19T15:33:38.269Z,11.33
2019-05-19T15:36:01.562Z,3.47
2019-05-19T15:38:27.341Z,3.30
2019-05-19T15:40:53.378Z,3.37
2019-05-19T15:43:19.568Z,3.27
2019-05-19T15:45:45.611Z,3.33
2019-05-19T15:48:12.443Z,7.20
2019-05-19T15:50:38.521Z,6.83
2019-05-19T15:53:07.474Z,3.07
2019-05-19T15:55:33.564Z,3.03
2019-05-19T15:58:15.592Z,3.70
2019-05-19T16:00:30.125Z,4.23
2019-05-19T16:02:58.986Z,3.53
2019-05-19T16:05:24.792Z,3.63
2019-05-19T16:07:51.738Z,2.93
2019-05-19T16:10:17.668Z,3.10
2019-05-19T16:12:46.475Z,5.10
2019-05-19T16:15:13.795Z,9.43
2019-05-19T16:17:39.943Z,3.30
2019-05-19T16:20:06.776Z,4.80
2019-05-19T16:22:33.272Z,3.10
2019-05-19T16:24:59.169Z,6.57
2019-05-19T16:27:25.296Z,2.83
2019-05-19T16:29:54.100Z,3.30
2019-05-19T16:32:20.141Z,5.53
2019-05-19T16:34:49.211Z,3.40
2019-05-19T16:37:15.030Z,3.93
2019-05-19T16:39:43.652Z,3.03
2019-05-19T16:42:09.468Z,3.30
2019-05-19T16:44:38.003Z,2.80
2019-05-19T16:47:03.861Z,5.37
2019-05-19T16:49:32.707Z,3.10
2019-05-19T16:51:58.801Z,3.30
2019-05-19T16:54:26.495Z,4.50
2019-05-19T16:56:52.291Z,4.10
2019-05-19T16:59:18.086Z,2.30
2019-05-19T17:01:44.110Z,4.17
2019-05-19T17:04:09.913Z,3.13
2019-05-19T17:06:38.136Z,3.70
2019-05-19T17:09:04.027Z,3.50
2019-05-19T17:11:32.934Z,4.20
2019-05-19T17:13:58.717Z,2.50
2019-05-19T17:16:27.628Z,3.23
2019-05-19T17:18:53.398Z,3.53
2019-05-19T17:21:22.323Z,4.47
2019-05-19T17:23:48.095Z,4.43
2019-05-19T17:26:16.925Z,3.60
2019-05-19T17:28:42.701Z,4.40
2019-05-19T17:31:08.507Z,4.70
2019-05-19T17:33:34.300Z,4.67
2019-05-19T17:36:00.121Z,3.87
2019-05-19T17:38:28.684Z,3.90
2019-05-19T17:40:54.747Z,6.00
2019-05-19T17:43:23.567Z,4.87
2019-05-19T17:45:49.371Z,5.80
2019-05-19T17:48:26.630Z,5.30
2019-05-19T17:50:48.936Z,3.17
2019-05-19T17:53:14.952Z,2.60
2019-05-19T17:55:41.279Z,4.93
2019-05-19T17:58:07.088Z,5.43
2019-05-19T18:00:35.979Z,5.17
2019-05-19T18:03:01.836Z,5.43
2019-05-19T18:05:27.805Z,5.20
2019-05-19T18:07:53.950Z,3.73
2019-05-19T18:10:19.945Z,4.03
2019-05-19T18:12:46.031Z,41.67
2019-05-19T18:15:14.982Z,6.13
2019-05-19T18:17:40.791Z,5.20
2019-05-19T18:20:22.939Z,5.33
2019-05-19T18:22:39.049Z,4.10
2019-05-19T18:25:04.930Z,3.93
2019-05-19T18:27:30.785Z,7.50
2019-05-19T18:29:59.622Z,5.80
2019-05-19T18:32:25.486Z,4.83
2019-05-19T18:34:54.114Z,4.30
2019-05-19T18:37:19.910Z,5.63
2019-05-19T18:39:48.674Z,6.20
2019-05-19T18:42:14.503Z,4.43
2019-05-19T18:44:40.293Z,4.50
2019-05-19T18:47:06.103Z,5.17
2019-05-19T18:49:31.903Z,4.30
2019-05-19T18:52:00.561Z,4.67
2019-05-19T18:54:26.610Z,7.77
2019-05-19T18:56:54.145Z,5.00
2019-05-19T18:59:20.278Z,3.97
2019-05-19T19:01:48.810Z,3.80
2019-05-19T19:04:14.631Z,4.70
2019-05-19T19:06:43.676Z,6.87
2019-05-19T19:09:09.703Z,4.47
2019-05-19T19:11:38.253Z,4.00
2019-05-19T19:14:04.064Z,2.87
2019-05-19T19:16:32.708Z,3.00
2019-05-19T19:18:58.512Z,3.33
2019-05-19T19:21:24.447Z,3.60
2019-05-19T19:23:50.206Z,3.70
2019-05-19T19:26:15.999Z,3.17
2019-05-19T19:28:44.986Z,3.27
2019-05-19T19:31:10.812Z,6.00
2019-05-19T19:33:39.946Z,2.80
2019-05-19T19:36:05.755Z,3.93
2019-05-19T19:38:34.989Z,2.53
2019-05-19T19:41:00.810Z,2.80
2019-05-19T19:43:29.726Z,3.47
2019-05-19T19:45:55.811Z,4.30
2019-05-19T19:48:24.642Z,4.60
2019-05-19T19:50:50.738Z,5.60
2019-05-19T19:53:19.523Z,3.00
2019-05-19T19:55:45.323Z,3.40
2019-05-19T19:58:11.126Z,4.10
2019-05-19T20:00:39.713Z,3.20
2019-05-19T20:03:06.033Z,3.30
2019-05-19T20:05:31.985Z,3.83
2019-05-19T20:07:58.107Z,4.07
2019-05-19T20:10:24.378Z,2.67
2019-05-19T20:12:50.214Z,2.70
2019-05-19T20:15:18.932Z,4.00
2019-05-19T20:17:44.759Z,4.53
2019-05-19T20:20:13.520Z,3.73
2019-05-19T20:22:40.694Z,6.17
2019-05-19T20:25:09.489Z,5.80
2019-05-19T20:27:35.598Z,3.60
2019-05-19T20:30:04.669Z,4.40
2019-05-19T20:32:30.482Z,4.03
2019-05-19T20:34:56.337Z,2.93
2019-05-19T20:37:22.132Z,4.87
2019-05-19T20:39:48.263Z,3.80
2019-05-19T20:42:17.121Z,3.40
2019-05-19T20:44:42.924Z,3.03
2019-05-19T20:47:11.545Z,3.27
2019-05-19T20:49:37.411Z,6.57
2019-05-19T20:52:06.371Z,8.97
2019-05-19T20:54:32.183Z,7.47
2019-05-19T20:57:01.133Z,3.30
2019-05-19T20:59:26.904Z,4.40
2019-05-19T21:01:55.536Z,3.70
2019-05-19T21:04:21.570Z,4.97
2019-05-19T21:06:48.274Z,4.67
2019-05-19T21:09:14.067Z,4.90
2019-05-19T21:11:40.091Z,4.17
2019-05-19T21:14:06.160Z,4.90
2019-05-19T21:16:32.336Z,5.17
2019-05-19T21:19:01.412Z,3.70
2019-05-19T21:21:27.210Z,3.33
2019-05-19T21:23:54.876Z,6.50
2019-05-19T21:26:20.708Z,3.70
2019-05-19T21:28:49.078Z,5.07
2019-05-19T21:31:15.142Z,6.50
2019-05-19T21:33:48.406Z,6.13
2019-05-19T21:36:14.210Z,3.97
2019-05-19T21:38:40.305Z,4.30
2019-05-19T21:41:06.137Z,4.00
2019-05-19T21:43:33.926Z,4.30
2019-05-19T21:45:59.740Z,4.40
2019-05-19T21:48:32.526Z,4.27
2019-05-19T21:50:58.630Z,3.23
2019-05-19T21:53:24.693Z,3.67
2019-05-19T21:55:50.502Z,4.07
2019-05-19T21:58:16.551Z,6.80
2019-05-19T22:00:42.475Z,4.77
2019-05-19T22:03:08.317Z,4.37
2019-05-19T22:05:51.181Z,4.87
2019-05-19T22:08:06.752Z,5.60
2019-05-19T22:10:32.696Z,5.23
2019-05-19T22:12:58.459Z,5.03
2019-05-19T22:15:24.370Z,7.33
2019-05-19T22:17:50.161Z,7.30
2019-05-19T22:20:20.039Z,5.33
2019-05-19T22:22:45.899Z,4.07
2019-05-19T22:25:11.796Z,5.90
2019-05-19T22:27:37.592Z,3.60
2019-05-19T22:30:05.771Z,2.60
2019-05-19T22:32:31.584Z,3.10
2019-05-19T22:34:57.368Z,3.70
2019-05-19T22:37:25.848Z,3.30
2019-05-19T22:39:51.645Z,1.80
2019-05-19T22:42:20.318Z,2.37
2019-05-19T22:44:46.388Z,2.93
2019-05-19T22:47:14.987Z,3.67
2019-05-19T22:49:40.802Z,2.65
2019-05-19T22:52:09.658Z,3.00
2019-05-19T22:54:35.477Z,1.27
2019-05-19T22:57:04.127Z,1.10
2019-05-19T22:59:29.925Z,2.20
2019-05-19T23:01:55.721Z,1.33
2019-05-19T23:04:21.517Z,1.83
2019-05-19T23:06:47.334Z,2.40
2019-05-19T23:09:15.775Z,2.33
2019-05-19T23:11:41.583Z,1.60
2019-05-19T23:14:10.890Z,5.17
2019-05-19T23:16:36.702Z,2.33
2019-05-19T23:19:07.267Z,3.90
2019-05-19T23:21:34.576Z,1.90
2019-05-19T23:24:00.497Z,1.30
2019-05-19T23:26:26.276Z,2.63
2019-05-19T23:28:57.012Z,1.73
2019-05-19T23:31:22.824Z,1.90
2019-05-19T23:33:51.642Z,1.10
2019-05-19T23:36:17.460Z,1.70
2019-05-19T23:38:43.520Z,2.13
2019-05-19T23:41:09.615Z,2.33
2019-05-19T23:43:35.425Z,12.43
2019-05-19T23:46:01.468Z,3.40
2019-05-19T23:48:27.540Z,4.12
2019-05-19T23:50:56.089Z,1.12
2019-05-19T23:53:22.296Z,3.25
2019-05-19T23:55:50.897Z,1.50
2019-05-19T23:58:16.751Z,5.08
